Time;durP1;ratioP1;P1;durP2;ratioP2;P2;SDS_P1;SDS_P2;PMS_P1;PMS_P2;Temp;Humidity;BMP_temperature;BMP_pressure;BME280_temperature;BME280_humidity;BME280_pressure;Samples;Min_cycle;Max_cycle;Signal;HPM_P1;HPM_P2
2023/02/02 00:00:56;;;;;;;40.25;20.70;;;;;;;1.19;100.00;93191.78;5069161;28;20080;-67
2023/02/02 00:03:23;;;;;;;41.58;14.77;;;;;;;1.02;100.00;93202.78;5069990;28;20545;-67
2023/02/02 00:05:52;;;;;;;32.65;16.30;;;;;;;1.08;100.00;93198.81;5070285;28;20044;-67
2023/02/02 00:08:20;;;;;;;34.15;18.95;;;;;;;1.12;100.00;93195.88;5070316;28;20040;-68
2023/02/02 00:10:49;;;;;;;32.40;17.80;;;;;;;0.94;100.00;93155.47;5070434;28;20633;-67
2023/02/02 00:13:16;;;;;;;37.35;20.58;;;;;;;1.23;100.00;93193.97;5070216;28;20240;-68
2023/02/02 00:15:44;;;;;;;36.30;21.23;;;;;;;1.17;100.00;93180.22;5070286;28;20048;-68
2023/02/02 00:18:11;;;;;;;41.63;21.20;;;;;;;1.33;100.00;93192.94;5044067;28;20072;-67
2023/02/02 00:20:37;;;;;;;31.42;19.60;;;;;;;1.37;100.00;93190.06;5070139;28;20094;-68
2023/02/02 00:23:04;;;;;;;37.70;19.70;;;;;;;1.42;100.00;93193.75;5070318;28;20102;-68
2023/02/02 00:25:31;;;;;;;33.72;18.63;;;;;;;1.46;100.00;93194.22;5069417;28;20052;-68
2023/02/02 00:27:58;;;;;;;25.63;14.57;;;;;;;1.49;100.00;93188.06;5070180;28;20072;-68
2023/02/02 00:30:24;;;;;;;19.90;10.30;;;;;;;1.49;100.00;93193.94;5069980;28;20084;-67
2023/02/02 00:32:52;;;;;;;22.90;11.15;;;;;;;1.55;100.00;93202.63;5069970;28;20110;-67
2023/02/02 00:35:19;;;;;;;31.80;18.23;;;;;;;1.45;100.00;93208.59;5069070;28;20570;-67
2023/02/02 00:37:46;;;;;;;37.83;19.17;;;;;;;1.47;100.00;93203.41;5070230;28;20048;-68
2023/02/02 00:40:13;;;;;;;24.77;13.18;;;;;;;1.46;100.00;93207.69;5069639;28;20105;-67
2023/02/02 00:42:40;;;;;;;15.75;8.73;;;;;;;1.46;100.00;93204.34;5069976;28;20056;-67
2023/02/02 00:45:15;;;;;;;46.33;21.83;;;;;;;1.26;100.00;93203.81;5069981;28;20078;-67
2023/02/02 00:47:44;;;;;;;34.33;15.73;;;;;;;1.26;100.00;93209.69;5069431;28;20048;-67
2023/02/02 00:50:14;;;;;;;70.65;36.13;;;;;;;1.28;100.00;93196.84;5043591;28;20099;-67
2023/02/02 00:52:41;;;;;;;42.58;18.42;;;;;;;1.36;100.00;93196.09;5069968;28;20045;-67
2023/02/02 00:55:09;;;;;;;35.90;15.77;;;;;;;1.28;100.00;93192.59;5069711;28;20052;-67
2023/02/02 00:57:36;;;;;;;36.47;16.35;;;;;;;1.31;100.00;93188.97;5069407;28;20094;-67
2023/02/02 01:00:06;;;;;;;28.88;14.07;;;;;;;1.36;100.00;93193.56;5069075;28;20098;-69
2023/02/02 01:02:33;;;;;;;30.85;14.70;;;;;;;1.32;100.00;93180.41;5068824;28;20053;-68
2023/02/02 01:05:00;;;;;;;33.70;18.48;;;;;;;1.42;100.00;93192.94;5068795;28;20041;-68
2023/02/02 01:07:28;;;;;;;35.47;17.75;;;;;;;1.27;100.00;93175.84;5068882;28;20173;-68
2023/02/02 01:09:55;;;;;;;27.05;13.80;;;;;;;1.46;100.00;93199.28;5068773;28;20122;-69
2023/02/02 01:12:21;;;;;;;35.72;20.15;;;;;;;1.45;100.00;93203.53;5068378;28;20048;-68
2023/02/02 01:14:48;;;;;;;21.45;11.98;;;;;;;1.45;100.00;93195.19;5068383;28;20086;-68
2023/02/02 01:17:15;;;;;;;20.95;12.02;;;;;;;1.48;100.00;93196.59;5068796;28;20044;-68
2023/02/02 01:19:42;;;;;;;22.92;12.43;;;;;;;1.44;100.00;93191.84;5068893;28;20121;-68
2023/02/02 01:22:09;;;;;;;19.38;9.82;;;;;;;1.43;100.00;93185.19;5068398;28;20079;-68
2023/02/02 01:24:37;;;;;;;22.08;9.82;;;;;;;1.38;100.00;93189.16;5068352;28;20091;-68
2023/02/02 01:27:03;;;;;;;21.25;9.05;;;;;;;1.37;100.00;93190.88;5068427;28;20094;-68
2023/02/02 01:29:30;;;;;;;17.73;9.57;;;;;;;1.26;100.00;93189.44;5068325;28;20130;-68
2023/02/02 01:31:57;;;;;;;12.00;6.65;;;;;;;1.23;100.00;93178.78;5068229;28;20871;-68
2023/02/02 01:34:24;;;;;;;12.77;6.95;;;;;;;1.19;100.00;93184.19;5068518;28;20044;-68
2023/02/02 01:36:51;;;;;;;13.30;6.03;;;;;;;1.15;100.00;93182.13;5067816;28;20048;-68
2023/02/02 01:39:18;;;;;;;12.82;6.15;;;;;;;1.10;100.00;93172.44;5041384;28;20048;-68
2023/02/02 01:41:46;;;;;;;12.07;6.45;;;;;;;1.08;100.00;93176.06;5068198;28;20479;-68
2023/02/02 01:45:01;;;;;;;20.63;8.80;;;;;;;1.08;100.00;93173.53;5068194;28;20079;-68
2023/02/02 01:47:32;;;;;;;17.40;8.10;;;;;;;0.95;100.00;93174.75;5066128;28;20041;-69
2023/02/02 01:49:59;;;;;;;33.20;13.95;;;;;;;0.74;100.00;93155.69;5062541;28;20118;-70
2023/02/02 01:52:28;;;;;;;22.58;11.55;;;;;;;0.56;100.00;93130.50;5067681;28;20451;-69
2023/02/02 01:54:59;;;;;;;32.17;14.45;;;;;;;0.71;100.00;93158.53;5067235;28;20094;-69
2023/02/02 01:57:32;;;;;;;25.35;11.60;;;;;;;0.66;100.00;93155.66;5067368;28;20041;-69
2023/02/02 02:00:02;;;;;;;22.63;9.90;;;;;;;0.63;100.00;93155.94;5021325;28;1202894;-69
2023/02/02 02:02:32;;;;;;;11.43;5.47;;;;;;;0.61;100.00;93162.91;5068338;28;20396;-70
2023/02/02 02:05:01;;;;;;;13.52;7.35;;;;;;;0.45;100.00;93158.53;5063223;28;20040;-69
2023/02/02 02:07:28;;;;;;;29.38;15.73;;;;;;;0.44;100.00;93155.22;5067983;28;20122;-70
2023/02/02 02:09:55;;;;;;;14.05;8.00;;;;;;;0.41;100.00;93159.78;5068324;28;20393;-70
2023/02/02 02:12:21;;;;;;;17.83;9.38;;;;;;;0.37;100.00;93162.59;5068319;28;20040;-70
2023/02/02 02:17:47;;;;;;;10.00;4.78;;;;;;;0.33;100.00;93161.28;5068064;28;20052;-69
2023/02/02 02:27:25;;;;;;;16.48;7.55;;;;;;;0.07;100.00;93151.97;5067812;28;20051;-69
2023/02/02 02:30:34;;;;;;;10.10;6.30;;;;;;;0.10;100.00;93163.53;5067897;28;20071;-69
2023/02/02 02:33:05;;;;;;;13.40;8.57;;;;;;;0.03;100.00;93152.41;5068087;28;20045;-69
2023/02/02 02:35:41;;;;;;;12.55;6.97;;;;;;;-0.01;100.00;93165.34;5067961;28;20045;-69
2023/02/02 02:38:11;;;;;;;;;;;;;;;-0.03;100.00;93162.16;5068354;28;20094;-69
2023/02/02 02:40:42;;;;;;;13.27;7.20;;;;;;;-0.11;100.00;93157.03;5067985;28;19963;-70
2023/02/02 02:43:14;;;;;;;12.80;8.20;;;;;;;-0.16;100.00;93167.59;5067903;28;20052;-70
2023/02/02 02:45:43;;;;;;;13.23;6.93;;;;;;;-0.13;100.00;93156.41;5068121;28;20068;-69
2023/02/02 02:48:12;;;;;;;13.75;9.25;;;;;;;-0.29;100.00;93141.91;5067841;28;20053;-69
2023/02/02 02:50:39;;;;;;;14.07;8.35;;;;;;;-0.24;100.00;93154.88;5068042;28;20117;-69
2023/02/02 02:53:10;;;;;;;11.32;7.03;;;;;;;-0.25;100.00;93162.59;5067614;28;20040;-69
2023/02/02 02:55:46;;;;;;;15.38;9.27;;;;;;;-0.27;100.00;93160.22;5067644;28;20386;-69
2023/02/02 02:58:17;;;;;;;;;;;;;;;-0.24;100.00;93164.19;5069439;28;20052;-68
2023/02/02 03:00:56;;;;;;;16.55;8.68;;;;;;;-0.37;100.00;93152.72;5071306;28;20396;-68
2023/02/02 03:03:41;;;;;;;15.95;9.30;;;;;;;-0.32;100.00;93159.88;5071253;28;20044;-70
2023/02/02 03:06:14;;;;;;;16.90;10.50;;;;;;;-0.51;100.00;93135.56;5071028;28;20044;-69
2023/02/02 03:08:46;;;;;;;20.52;11.13;;;;;;;-0.38;100.00;93147.81;5071034;28;20125;-69
2023/02/02 03:11:14;;;;;;;13.20;8.02;;;;;;;-0.40;100.00;93147.97;5071009;28;20048;-69
2023/02/02 03:13:42;;;;;;;19.02;10.35;;;;;;;-0.37;100.00;93144.38;5071336;28;20045;-69
2023/02/02 03:16:09;;;;;;;14.35;8.00;;;;;;;-0.33;100.00;93151.50;5070697;28;20090;-70
2023/02/02 03:18:37;;;;;;;14.70;7.68;;;;;;;-0.41;100.00;93151.44;5070751;28;20097;-69
2023/02/02 03:21:04;;;;;;;16.33;8.50;;;;;;;-0.48;100.00;93145.34;5071131;28;20072;-69
2023/02/02 03:23:31;;;;;;;9.63;5.22;;;;;;;-0.50;100.00;93153.09;5070906;28;20068;-69
2023/02/02 03:25:58;;;;;;;10.43;6.13;;;;;;;-0.52;100.00;93149.13;5070716;28;20045;-69
2023/02/02 03:28:25;;;;;;;10.05;5.88;;;;;;;-0.57;100.00;93145.28;5071184;28;20044;-69
2023/02/02 03:30:53;;;;;;;13.27;7.70;;;;;;;-0.50;100.00;93144.72;5070766;28;20117;-69
2023/02/02 03:33:20;;;;;;;12.90;7.07;;;;;;;-0.58;100.00;93136.13;5070845;28;20433;-69
2023/02/02 03:35:48;;;;;;;11.88;7.70;;;;;;;-0.54;100.00;93154.31;5070419;28;20549;-68
2023/02/02 03:38:15;;;;;;;44.17;22.33;;;;;;;-0.52;100.00;93142.31;5070341;28;20036;-69
2023/02/02 03:40:42;;;;;;;17.15;9.65;;;;;;;-0.56;100.00;93146.06;5070431;28;20045;-68
2023/02/02 03:43:08;;;;;;;13.27;8.60;;;;;;;-0.58;100.00;93143.72;5070558;28;20162;-68
2023/02/02 03:45:36;;;;;;;14.38;8.93;;;;;;;-0.59;100.00;93144.66;5070340;28;20102;-69
2023/02/02 03:48:05;;;;;;;17.15;10.40;;;;;;;-0.63;100.00;93152.63;5070621;28;20137;-69
2023/02/02 03:50:32;;;;;;;16.50;8.70;;;;;;;-0.62;100.00;93156.72;5070121;28;20543;-69
2023/02/02 03:53:00;;;;;;;11.68;6.97;;;;;;;-0.69;100.00;93156.53;5070366;28;20090;-69
2023/02/02 03:55:26;;;;;;;18.00;9.57;;;;;;;-0.76;100.00;93145.41;5070719;28;20159;-68
2023/02/02 03:57:53;;;;;;;13.55;8.70;;;;;;;-0.81;100.00;93143.31;5070157;28;20102;-69
2023/02/02 04:00:21;;;;;;;15.90;9.38;;;;;;;-0.73;100.00;93156.03;5065069;28;20481;-68
2023/02/02 04:02:48;;;;;;;16.88;10.40;;;;;;;-0.76;100.00;93155.50;5069837;28;20852;-69
2023/02/02 04:05:14;;;;;;;17.48;10.80;;;;;;;-0.75;100.00;93159.63;5070218;28;20072;-69
2023/02/02 04:07:41;;;;;;;16.40;10.95;;;;;;;-0.72;100.00;93167.69;5070127;28;20129;-69
2023/02/02 04:10:10;;;;;;;13.30;8.20;;;;;;;-0.78;100.00;93155.66;5069080;28;20076;-69
2023/02/02 04:12:37;;;;;;;13.55;7.60;;;;;;;-0.79;100.00;93164.13;5069995;28;20044;-69
2023/02/02 04:15:05;;;;;;;12.10;6.47;;;;;;;-0.77;100.00;93159.75;5069770;28;20076;-69
2023/02/02 04:17:31;;;;;;;11.95;6.55;;;;;;;-0.86;100.00;93158.06;5069532;28;20612;-69
2023/02/02 04:19:58;;;;;;;13.05;8.07;;;;;;;-0.94;100.00;93141.13;5069860;28;20041;-69
2023/02/02 04:22:25;;;;;;;12.18;6.55;;;;;;;-0.87;100.00;93153.97;5069903;28;20098;-69
2023/02/02 04:24:52;;;;;;;12.50;6.45;;;;;;;-0.85;100.00;93157.94;5069497;28;20562;-69
2023/02/02 04:27:20;;;;;;;11.95;7.32;;;;;;;-0.84;100.00;93171.31;5069540;28;20162;-69
2023/02/02 04:29:46;;;;;;;11.93;6.72;;;;;;;-0.87;100.00;93169.09;5069555;28;20092;-69
2023/02/02 04:32:14;;;;;;;16.08;7.82;;;;;;;-0.89;100.00;93174.28;5069681;28;20389;-69
2023/02/02 04:34:41;;;;;;;14.30;8.38;;;;;;;-0.83;100.00;93173.72;5069746;28;20097;-70
2023/02/02 04:37:08;;;;;;;13.20;7.75;;;;;;;-0.81;100.00;93171.06;5069077;28;20044;-70
2023/02/02 04:39:34;;;;;;;15.93;10.35;;;;;;;-0.79;100.00;93161.59;5069567;28;20045;-69
2023/02/02 04:42:01;;;;;;;26.02;16.23;;;;;;;-0.78;100.00;93168.25;5069366;28;20082;-69
2023/02/02 04:44:29;;;;;;;56.60;34.58;;;;;;;-0.73;100.00;93171.16;5069007;28;20127;-70
2023/02/02 04:46:56;;;;;;;13.25;8.32;;;;;;;-0.73;100.00;93166.09;5069412;28;20044;-71
2023/02/02 04:49:22;;;;;;;16.85;9.80;;;;;;;-0.66;100.00;93178.16;5069369;28;20064;-70
2023/02/02 04:51:50;;;;;;;36.47;23.27;;;;;;;-0.63;100.00;93177.84;5069429;28;20087;-71
2023/02/02 04:54:17;;;;;;;22.38;12.88;;;;;;;-0.64;100.00;93184.66;5068894;28;20059;-68
2023/02/02 04:56:43;;;;;;;17.02;10.93;;;;;;;-0.63;100.00;93190.47;5069200;28;20049;-70
2023/02/02 04:59:10;;;;;;;19.95;12.77;;;;;;;-0.70;100.00;93186.00;5068875;28;20084;-69
2023/02/02 05:01:38;;;;;;;19.05;10.40;;;;;;;-0.65;100.00;93188.06;5068772;28;20386;-71
2023/02/02 05:04:05;;;;;;;12.90;8.50;;;;;;;-0.61;100.00;93193.66;5068831;28;20040;-71
2023/02/02 05:06:32;;;;;;;19.92;10.90;;;;;;;-0.57;100.00;93190.69;5069048;28;20052;-70
2023/02/02 05:09:00;;;;;;;12.82;8.18;;;;;;;-0.59;100.00;93185.00;5068677;28;20044;-70
2023/02/02 05:11:27;;;;;;;13.02;7.32;;;;;;;-0.83;100.00;93178.75;5069032;28;20102;-70
2023/02/02 05:13:55;;;;;;;18.25;10.13;;;;;;;-0.94;100.00;93176.41;5069052;28;20135;-70
2023/02/02 05:16:23;;;;;;;12.95;7.93;;;;;;;-1.08;100.00;93173.44;5068974;28;20467;-70
2023/02/02 05:18:52;;;;;;;14.27;8.40;;;;;;;-1.05;100.00;93177.41;5068808;28;20133;-70
2023/02/02 05:21:19;;;;;;;15.18;10.32;;;;;;;-1.04;100.00;93185.75;5068410;28;20072;-70
2023/02/02 05:23:46;;;;;;;16.33;9.82;;;;;;;-1.04;100.00;93183.22;5068916;28;20087;-70
2023/02/02 05:26:16;;;;;;;17.55;10.93;;;;;;;-1.10;100.00;93182.06;5068548;28;20080;-70
2023/02/02 05:28:43;;;;;;;18.20;11.05;;;;;;;-1.06;100.00;93180.88;5068716;28;20080;-70
2023/02/02 05:31:11;;;;;;;19.25;11.82;;;;;;;-1.06;100.00;93185.09;5068674;28;20136;-71
2023/02/02 05:33:38;;;;;;;23.00;12.88;;;;;;;-1.26;100.00;93162.47;5068489;28;20086;-70
2023/02/02 05:36:07;;;;;;;19.25;11.23;;;;;;;-1.23;100.00;93183.19;5068759;28;20047;-70
2023/02/02 05:38:35;;;;;;;19.63;11.40;;;;;;;-1.18;100.00;93192.03;5068507;28;20048;-70
2023/02/02 05:41:02;;;;;;;18.48;10.15;;;;;;;-1.16;100.00;93197.75;5068426;28;20098;-70
2023/02/02 05:43:31;;;;;;;15.93;10.13;;;;;;;-1.28;100.00;93187.84;5068132;28;20051;-70
2023/02/02 05:45:58;;;;;;;17.90;9.93;;;;;;;-1.19;100.00;93198.03;5062851;28;20041;-70
2023/02/02 05:48:25;;;;;;;17.15;10.45;;;;;;;-1.23;100.00;93193.28;5068399;28;20045;-70
2023/02/02 05:51:00;;;;;;;21.08;10.77;;;;;;;-1.18;100.00;93192.84;5068505;28;20076;-70
2023/02/02 05:53:30;;;;;;;23.17;12.02;;;;;;;-1.18;100.00;93190.31;5068485;28;20049;-70
2023/02/02 05:55:57;;;;;;;28.25;14.80;;;;;;;-1.22;100.00;93189.00;5068285;28;20044;-70
2023/02/02 05:58:24;;;;;;;26.60;13.38;;;;;;;-1.20;100.00;93202.28;5068280;28;20056;-70
2023/02/02 06:00:51;;;;;;;23.92;13.73;;;;;;;-1.22;100.00;93196.56;5068305;28;20041;-69
2023/02/02 06:03:18;;;;;;;24.75;13.75;;;;;;;-1.19;100.00;93195.50;5068385;28;20447;-70
2023/02/02 06:05:44;;;;;;;29.55;15.43;;;;;;;-1.18;100.00;93204.63;5068209;28;20141;-70
2023/02/02 06:08:11;;;;;;;23.58;14.10;;;;;;;-1.14;100.00;93209.28;5068332;28;20048;-70
2023/02/02 06:10:40;;;;;;;24.83;15.25;;;;;;;-1.12;100.00;93204.88;5068067;28;20045;-70
2023/02/02 06:13:07;;;;;;;28.52;17.40;;;;;;;-1.07;100.00;93214.56;5068035;28;20048;-70
2023/02/02 06:15:34;;;;;;;30.05;17.58;;;;;;;-1.25;100.00;93195.13;5067993;28;20067;-70
2023/02/02 06:18:00;;;;;;;30.38;17.00;;;;;;;-1.05;100.00;93211.91;5067869;28;20049;-70
2023/02/02 06:20:28;;;;;;;24.15;15.05;;;;;;;-1.05;100.00;93217.75;5068312;28;20049;-70
2023/02/02 06:22:55;;;;;;;32.60;19.25;;;;;;;-1.11;100.00;93205.69;5068101;28;20065;-70
2023/02/02 06:25:21;;;;;;;34.15;20.30;;;;;;;-1.02;100.00;93207.38;5068009;28;20095;-70
2023/02/02 06:27:49;;;;;;;25.38;14.23;;;;;;;-0.97;100.00;93224.63;5067860;28;20084;-70
2023/02/02 06:30:16;;;;;;;21.45;13.10;;;;;;;-0.96;100.00;93229.50;5067982;28;20044;-70
2023/02/02 06:32:43;;;;;;;21.70;13.68;;;;;;;-0.88;100.00;93236.38;5068431;28;20052;-71
2023/02/02 06:35:10;;;;;;;24.70;14.38;;;;;;;-0.81;100.00;93239.16;5071733;28;20044;-71
2023/02/02 06:37:37;;;;;;;20.13;11.20;;;;;;;-0.69;100.00;93232.97;5071691;28;20048;-70
2023/02/02 06:40:06;;;;;;;23.08;12.38;;;;;;;-0.65;100.00;93227.66;5071923;28;20048;-71
2023/02/02 06:42:33;;;;;;;33.85;17.58;;;;;;;-0.61;100.00;93232.28;5071771;28;20052;-71
2023/02/02 06:45:01;;;;;;;35.65;19.55;;;;;;;-0.52;100.00;93225.59;5071720;28;20070;-71
2023/02/02 06:47:27;;;;;;;32.97;20.55;;;;;;;-0.45;100.00;93235.94;5071361;28;20511;-71
2023/02/02 06:49:54;;;;;;;30.15;18.30;;;;;;;-0.44;100.00;93233.25;5071396;28;20048;-70
2023/02/02 06:52:21;;;;;;;34.47;18.20;;;;;;;-0.44;100.00;93234.97;5071607;28;20040;-70
2023/02/02 06:54:47;;;;;;;35.38;16.52;;;;;;;-0.44;100.00;93230.75;5071170;28;20056;-70
2023/02/02 06:57:14;;;;;;;30.98;15.43;;;;;;;-0.35;100.00;93239.19;5071104;28;20462;-70
2023/02/02 06:59:41;;;;;;;28.80;13.98;;;;;;;-0.28;100.00;93245.25;5070991;28;20094;-70
2023/02/02 07:02:12;;;;;;;34.05;15.73;;;;;;;-0.17;100.00;93240.94;5071298;28;20493;-70
2023/02/02 07:04:38;;;;;;;33.47;14.40;;;;;;;-0.08;100.00;93241.81;5071321;28;20056;-70
2023/02/02 07:07:05;;;;;;;50.17;22.95;;;;;;;0.04;100.00;93234.81;5070948;28;20067;-71
2023/02/02 07:09:32;;;;;;;55.95;27.83;;;;;;;0.09;100.00;93230.91;5070940;28;20072;-71
2023/02/02 07:11:59;;;;;;;65.72;27.80;;;;;;;0.14;100.00;93233.03;5071259;28;20045;-70
2023/02/02 07:14:25;;;;;;;52.78;25.52;;;;;;;0.22;100.00;93233.06;5071157;28;20129;-69
2023/02/02 07:16:52;;;;;;;49.88;25.05;;;;;;;0.25;100.00;93232.78;5071233;28;20095;-70
2023/02/02 07:19:20;;;;;;;51.90;25.70;;;;;;;0.30;100.00;93229.81;5071102;28;20094;-70
2023/02/02 07:21:47;;;;;;;41.78;22.40;;;;;;;0.26;100.00;93223.47;5071264;28;20048;-69
2023/02/02 07:24:14;;;;;;;50.17;23.98;;;;;;;0.44;100.00;93241.13;5070979;28;20045;-69
2023/02/02 07:26:40;;;;;;;59.28;29.30;;;;;;;0.60;100.00;93234.63;5070640;28;20080;-69
2023/02/02 07:29:07;;;;;;;63.50;32.65;;;;;;;0.65;100.00;93240.81;5070847;28;20465;-69
2023/02/02 07:31:34;;;;;;;60.15;28.02;;;;;;;0.69;100.00;93230.41;5070886;28;20094;-69
2023/02/02 07:34:00;;;;;;;57.42;24.33;;;;;;;0.70;100.00;93232.00;5070677;28;20090;-70
2023/02/02 07:36:31;;;;;;;47.58;22.58;;;;;;;0.74;100.00;93235.81;5070538;28;20090;-70
2023/02/02 07:38:58;;;;;;;54.72;24.40;;;;;;;0.76;100.00;93234.72;5070254;28;20048;-71
2023/02/02 07:41:26;;;;;;;37.13;16.48;;;;;;;0.79;100.00;93231.88;5070338;28;20045;-70
2023/02/02 07:43:53;;;;;;;35.78;15.20;;;;;;;0.83;100.00;93227.31;5063467;28;20045;-71
2023/02/02 07:46:20;;;;;;;37.65;16.52;;;;;;;0.92;100.00;93231.47;5068939;28;21117;-71
2023/02/02 07:48:47;;;;;;;43.17;18.83;;;;;;;1.01;100.00;93227.25;5067439;28;20484;-70
2023/02/02 07:51:16;;;;;;;33.53;17.00;;;;;;;1.04;100.00;93229.50;5068015;28;20076;-70
2023/02/02 07:53:45;;;;;;;37.00;14.35;;;;;;;1.13;100.00;93227.81;5070472;28;20048;-71
2023/02/02 07:56:14;;;;;;;31.67;13.18;;;;;;;1.22;100.00;93227.81;5070012;28;20090;-70
2023/02/02 07:58:41;;;;;;;30.23;13.27;;;;;;;1.27;100.00;93225.63;5070101;28;20056;-71
2023/02/02 08:01:10;;;;;;;33.38;14.38;;;;;;;1.26;100.00;93222.31;5069872;28;20080;-71
2023/02/02 08:03:38;;;;;;;41.97;20.85;;;;;;;1.31;100.00;93225.16;5069652;28;20090;-70
2023/02/02 08:06:11;;;;;;;52.70;24.35;;;;;;;1.39;100.00;93231.22;5069801;28;20040;-71
2023/02/02 08:08:38;;;;;;;49.63;22.02;;;;;;;1.48;100.00;93225.22;5070070;28;20090;-71
2023/02/02 08:11:11;;;;;;;43.15;19.15;;;;;;;1.52;100.00;93228.28;5069796;28;20045;-71
2023/02/02 08:13:38;;;;;;;37.75;18.15;;;;;;;1.60;100.00;93224.03;5069952;28;20056;-71
2023/02/02 08:16:05;;;;;;;21.13;12.07;;;;;;;1.70;100.00;93220.53;5069521;28;20070;-71
2023/02/02 08:18:33;;;;;;;22.38;9.90;;;;;;;1.66;100.00;93207.41;5070388;28;20083;-71
2023/02/02 08:21:00;;;;;;;16.52;6.47;;;;;;;1.72;100.00;93216.91;5070208;28;20052;-71
2023/02/02 08:23:27;;;;;;;20.33;8.02;;;;;;;1.64;100.00;93199.19;5070197;28;20485;-71
2023/02/02 08:25:55;;;;;;;20.48;6.57;;;;;;;1.75;100.00;93215.81;5070155;28;20080;-71
2023/02/02 08:28:23;;;;;;;20.27;7.80;;;;;;;1.90;100.00;93212.69;5069982;28;20052;-71
2023/02/02 08:30:50;;;;;;;30.23;6.93;;;;;;;2.05;100.00;93201.00;5070277;28;20129;-71
2023/02/02 08:33:16;;;;;;;32.97;12.65;;;;;;;2.11;100.00;93204.63;5070248;28;20118;-71
2023/02/02 08:35:45;;;;;;;31.33;8.50;;;;;;;2.27;100.00;93207.16;5070112;28;20048;-71
2023/02/02 08:38:12;;;;;;;26.40;6.97;;;;;;;2.36;100.00;93205.41;5069672;28;21199;-71
2023/02/02 08:40:39;;;;;;;24.10;6.50;;;;;;;2.42;100.00;93211.59;5069830;28;20040;-71
2023/02/02 08:43:06;;;;;;;20.30;6.40;;;;;;;2.47;100.00;93199.25;5069505;28;20093;-71
2023/02/02 08:45:34;;;;;;;17.13;6.07;;;;;;;2.38;100.00;93195.91;5069708;28;20074;-71
2023/02/02 08:48:00;;;;;;;18.73;5.25;;;;;;;2.43;100.00;93187.81;5069202;28;20103;-71
2023/02/02 08:50:27;;;;;;;12.88;4.45;;;;;;;2.46;100.00;93172.28;5069657;28;20044;-70
2023/02/02 08:52:54;;;;;;;14.68;4.80;;;;;;;2.65;100.00;93193.97;5052911;28;20053;-70
2023/02/02 08:55:20;;;;;;;18.85;6.60;;;;;;;2.77;100.00;93194.44;5069368;28;20098;-70
2023/02/02 08:57:47;;;;;;;18.88;6.93;;;;;;;2.79;100.00;93187.44;5064730;28;20052;-70
2023/02/02 09:00:15;;;;;;;14.52;5.72;;;;;;;2.82;100.00;93195.69;5069539;28;20512;-69
2023/02/02 09:02:43;;;;;;;21.10;10.70;;;;;;;2.92;100.00;93192.00;5069861;28;20044;-69
2023/02/02 09:05:09;;;;;;;21.00;10.55;;;;;;;3.12;100.00;93184.03;5068977;28;20040;-69
2023/02/02 09:07:36;;;;;;;14.18;5.47;;;;;;;3.25;100.00;93187.78;5068721;28;20516;-69
2023/02/02 09:10:03;;;;;;;34.58;15.32;;;;;;;3.36;100.00;93191.69;5069626;28;20045;-69
2023/02/02 09:12:30;;;;;;;23.35;12.07;;;;;;;3.52;100.00;93186.53;5069061;28;20044;-69
2023/02/02 09:14:57;;;;;;;18.30;7.28;;;;;;;3.71;100.00;93182.00;5069154;28;20040;-69
2023/02/02 09:17:23;;;;;;;11.13;5.03;;;;;;;3.71;100.00;93171.84;5068911;28;20088;-70
2023/02/02 09:19:51;;;;;;;11.20;4.07;;;;;;;3.72;100.00;93164.06;5069108;28;20049;-70
2023/02/02 09:22:18;;;;;;;8.48;4.15;;;;;;;3.84;100.00;93169.53;5060332;28;20072;-69
2023/02/02 09:24:45;;;;;;;7.40;4.05;;;;;;;3.92;100.00;93167.88;5064050;28;20053;-70
2023/02/02 09:27:11;;;;;;;11.45;6.13;;;;;;;3.92;100.00;93162.81;5064847;28;20053;-70
2023/02/02 09:29:38;;;;;;;8.23;4.63;;;;;;;3.95;100.00;93170.09;5069505;28;20048;-70
2023/02/02 09:32:05;;;;;;;7.50;4.18;;;;;;;3.95;100.00;93158.19;5069240;28;20098;-70
2023/02/02 09:34:31;;;;;;;5.53;3.42;;;;;;;3.99;100.00;93151.78;5069075;28;20097;-69
2023/02/02 09:36:59;;;;;;;7.63;4.05;;;;;;;4.07;100.00;93148.41;5068673;28;20094;-70
2023/02/02 09:39:26;;;;;;;8.88;3.60;;;;;;;4.14;100.00;93149.31;5068973;28;20504;-69
2023/02/02 09:42:43;;;;;;;8.93;3.58;;;;;;;4.27;100.00;93135.22;5069230;28;20052;-70
2023/02/02 09:45:18;;;;;;;9.13;4.70;;;;;;;4.33;100.00;93141.34;5068893;28;20381;-70
2023/02/02 09:47:54;;;;;;;43.72;19.17;;;;;;;4.51;100.00;93134.22;5068885;28;20496;-69
2023/02/02 09:50:37;;;;;;;30.35;14.00;;;;;;;4.58;100.00;93141.16;5069073;28;20051;-69
2023/02/02 09:53:15;;;;;;;11.20;5.95;;;;;;;4.65;100.00;93139.47;5065418;28;20048;-69
2023/02/02 09:55:46;;;;;;;27.25;13.38;;;;;;;4.74;100.00;93142.72;5068627;28;20390;-69
2023/02/02 09:58:18;;;;;;;10.48;4.38;;;;;;;4.77;100.00;93144.94;5068909;28;20100;-69
2023/02/02 10:00:52;;;;;;;30.17;11.75;;;;;;;4.87;100.00;93144.66;5068798;28;20075;-70
2023/02/02 10:03:23;;;;;;;11.88;5.40;;;;;;;4.93;98.78;93136.31;5068996;28;20045;-70
2023/02/02 10:05:56;;;;;;;12.50;4.20;;;;;;;4.94;97.94;93140.44;5068876;28;20125;-69
2023/02/02 10:08:36;;;;;;;93.30;37.17;;;;;;;5.12;99.12;93129.09;5070743;28;20040;-69
2023/02/02 10:11:11;;;;;;;15.98;6.68;;;;;;;5.31;97.74;93128.56;5072957;28;20044;-69
2023/02/02 10:13:42;;;;;;;47.30;19.25;;;;;;;5.38;97.08;93131.19;5072673;28;20044;-69
2023/02/02 10:16:16;;;;;;;79.80;27.98;;;;;;;5.47;96.63;93129.31;5072616;28;20056;-69
2023/02/02 10:18:48;;;;;;;49.63;19.38;;;;;;;5.48;96.05;93121.47;5072588;28;20382;-69
2023/02/02 10:21:22;;;;;;;23.45;8.85;;;;;;;5.51;95.33;93114.44;5072884;28;20459;-69
2023/02/02 10:23:50;;;;;;;78.53;30.75;;;;;;;5.52;94.70;93114.28;5072588;28;20084;-69
2023/02/02 10:26:20;;;;;;;53.22;21.00;;;;;;;5.51;91.21;93117.78;5072213;28;20055;-69
2023/02/02 10:29:00;;;;;;;37.15;13.82;;;;;;;5.60;93.10;93114.16;5071875;28;20113;-69
2023/02/02 10:31:41;;;;;;;87.40;32.42;;;;;;;5.79;96.19;93111.97;5072718;28;20040;-69
2023/02/02 10:34:15;;;;;;;139.13;51.17;;;;;;;5.93;89.95;93107.75;5071998;28;20427;-69
2023/02/02 10:36:51;;;;;;;193.90;64.80;;;;;;;5.83;88.50;93090.25;5072692;28;20044;-70
2023/02/02 10:39:29;;;;;;;49.80;22.05;;;;;;;5.99;90.76;93099.41;5072128;28;20595;-69
2023/02/02 10:42:09;;;;;;;49.67;23.65;;;;;;;6.08;91.54;93097.53;5071941;28;20543;-69
2023/02/02 10:44:43;;;;;;;40.20;18.10;;;;;;;6.10;89.81;93093.03;5071885;28;20052;-69
2023/02/02 10:47:16;;;;;;;20.95;8.02;;;;;;;6.19;88.45;93090.34;5071753;28;20129;-69
2023/02/02 10:49:43;;;;;;;68.05;28.38;;;;;;;6.19;90.06;93075.84;5071820;28;20052;-69
2023/02/02 10:52:16;;;;;;;23.95;10.63;;;;;;;6.20;89.51;93076.63;5071938;28;20550;-69
2023/02/02 10:55:00;;;;;;;51.13;23.10;;;;;;;6.17;89.75;93074.44;5071927;28;20044;-69
2023/02/02 10:57:39;;;;;;;39.85;18.52;;;;;;;6.09;89.66;93067.72;5072343;28;20088;-70
2023/02/02 11:00:18;;;;;;;59.40;26.20;;;;;;;6.05;87.57;93054.56;5071871;28;20102;-70
2023/02/02 11:02:46;;;;;;;18.02;7.68;;;;;;;5.93;86.41;93051.69;5071902;28;20045;-70
2023/02/02 11:08:22;;;;;;;133.00;50.10;;;;;;;6.00;88.97;93049.19;5067308;28;20427;-71
2023/02/02 11:10:55;;;;;;;79.05;31.20;;;;;;;5.92;88.64;93044.25;5070914;28;20049;-69
2023/02/02 11:13:28;;;;;;;201.18;69.95;;;;;;;5.86;89.17;93035.56;5072330;28;20047;-69
2023/02/02 11:16:22;;;;;;;59.42;23.83;;;;;;;5.83;89.09;93038.47;5072733;28;20053;-68
2023/02/02 11:18:49;;;;;;;118.28;45.63;;;;;;;5.74;89.65;93027.63;5047879;28;20048;-68
2023/02/02 11:21:20;;;;;;;60.38;24.58;;;;;;;5.75;89.57;93029.22;5072307;28;20048;-68
2023/02/02 11:23:55;;;;;;;94.97;38.05;;;;;;;5.81;91.91;93035.31;5072827;28;20053;-68
2023/02/02 11:26:24;;;;;;;22.57;9.00;;;;;;;5.66;90.15;93012.47;5072403;28;20052;-69
2023/02/02 11:28:53;;;;;;;20.33;7.85;;;;;;;5.70;89.86;93024.66;5069246;28;20531;-68
2023/02/02 11:31:31;;;;;;;15.65;7.22;;;;;;;5.64;88.00;93016.97;5060276;28;20060;-69
2023/02/02 11:34:19;;;;;;;34.03;14.15;;;;;;;5.62;89.15;93015.38;5043951;28;20094;-69
2023/02/02 11:37:00;;;;;;;116.70;49.17;;;;;;;5.63;90.88;93008.53;5070205;28;20076;-69
2023/02/02 11:39:27;;;;;;;48.65;24.05;;;;;;;5.68;91.89;92996.00;5071701;28;21156;-69
2023/02/02 11:42:01;;;;;;;14.50;7.00;;;;;;;5.70;89.41;92991.50;5071574;28;20110;-69